createdAt,value
2022-10-03T00:00:42.168Z,11.30
2022-10-03T00:03:22.144Z,11.20
2022-10-03T00:05:57.884Z,11.80
2022-10-03T00:08:29.445Z,11.20
2022-10-03T00:11:15.570Z,11.20
2022-10-03T00:13:55.721Z,11.20
2022-10-03T00:16:55.116Z,11.10
2022-10-03T00:19:58.397Z,11.00
2022-10-03T00:22:27.892Z,10.90
2022-10-03T00:25:13.707Z,11.10
2022-10-03T00:27:47.263Z,10.90
2022-10-03T00:30:19.146Z,10.90
2022-10-03T00:32:46.109Z,10.80
2022-10-03T00:35:22.495Z,10.70
2022-10-03T00:37:55.312Z,10.60
2022-10-03T00:40:40.660Z,10.40
2022-10-03T00:43:07.678Z,10.40
2022-10-03T00:45:43.436Z,10.50
2022-10-03T00:48:19.462Z,10.60
2022-10-03T00:51:05.188Z,10.50
2022-10-03T00:53:51.985Z,10.60
2022-10-03T00:56:27.738Z,10.50
2022-10-03T00:59:03.053Z,10.30
2022-10-03T01:01:34.761Z,10.30
2022-10-03T01:04:20.321Z,10.30
2022-10-03T01:06:51.780Z,10.30
2022-10-03T01:09:27.591Z,10.40
2022-10-03T01:12:00.284Z,10.30
2022-10-03T01:14:41.533Z,10.50
2022-10-03T01:17:27.970Z,10.40
2022-10-03T01:20:02.002Z,10.10
2022-10-03T01:22:44.312Z,9.90
2022-10-03T01:25:30.646Z,9.90
2022-10-03T01:28:18.827Z,10.00
2022-10-03T01:30:47.761Z,10.10
2022-10-03T01:33:33.132Z,10.00
2022-10-03T01:35:59.734Z,9.90
2022-10-03T01:38:45.594Z,9.70
2022-10-03T01:41:22.492Z,9.50
2022-10-03T01:43:51.425Z,9.50
2022-10-03T01:46:45.201Z,9.40
2022-10-03T01:49:18.981Z,9.40
2022-10-03T01:52:10.457Z,9.50
2022-10-03T01:54:58.670Z,9.70
2022-10-03T01:57:28.037Z,9.90
2022-10-03T02:00:13.361Z,9.90
2022-10-03T02:02:43.542Z,9.80
2022-10-03T02:05:12.734Z,9.80
2022-10-03T02:07:42.768Z,9.80
2022-10-03T02:10:09.626Z,9.70
2022-10-03T02:12:40.799Z,9.80
2022-10-03T02:15:14.382Z,9.90
2022-10-03T02:17:55.915Z,9.90
2022-10-03T02:20:32.273Z,9.70
2022-10-03T02:22:59.518Z,9.80
2022-10-03T02:25:26.211Z,9.90
2022-10-03T02:27:57.335Z,9.90
2022-10-03T02:30:26.685Z,9.80
2022-10-03T02:32:56.666Z,9.70
2022-10-03T02:35:42.900Z,9.60
2022-10-03T02:38:10.203Z,9.50
2022-10-03T02:40:53.570Z,9.60
2022-10-03T02:43:31.757Z,9.60
2022-10-03T02:46:09.414Z,9.70
2022-10-03T02:48:39.214Z,9.50
2022-10-03T02:51:09.897Z,9.40
2022-10-03T02:53:48.974Z,9.40
2022-10-03T02:56:36.160Z,9.50
2022-10-03T02:59:26.135Z,9.50
2022-10-03T03:01:53.036Z,9.20
2022-10-03T03:04:22.900Z,9.20
2022-10-03T03:07:07.946Z,9.30
2022-10-03T03:09:57.920Z,9.30
2022-10-03T03:12:44.627Z,9.10
2022-10-03T03:15:20.702Z,9.00
2022-10-03T03:17:53.967Z,8.80
2022-10-03T03:20:20.537Z,8.90
2022-10-03T03:22:59.552Z,9.00
2022-10-03T03:25:32.652Z,9.10
2022-10-03T03:28:14.949Z,9.00
2022-10-03T03:30:41.508Z,8.90
2022-10-03T03:33:26.614Z,8.90
2022-10-03T03:35:53.216Z,8.90
2022-10-03T03:38:19.925Z,8.90
2022-10-03T03:41:06.858Z,9.00
2022-10-03T03:43:52.395Z,9.00
2022-10-03T03:46:29.844Z,9.30
2022-10-03T03:49:09.110Z,9.60
2022-10-03T03:51:45.451Z,9.60
2022-10-03T03:54:29.004Z,9.60
2022-10-03T03:57:11.076Z,9.70
2022-10-03T03:59:50.148Z,9.90
2022-10-03T04:02:18.005Z,9.70
2022-10-03T04:04:52.010Z,9.40
2022-10-03T04:07:21.749Z,9.20
2022-10-03T04:10:03.693Z,9.20
2022-10-03T04:12:42.676Z,9.10
2022-10-03T04:15:28.064Z,9.20
2022-10-03T04:18:23.619Z,9.40
2022-10-03T04:21:06.995Z,9.30
2022-10-03T04:23:33.968Z,9.30
2022-10-03T04:26:10.910Z,9.30
2022-10-03T04:29:13.459Z,9.30
2022-10-03T04:31:52.437Z,9.10
2022-10-03T04:34:21.941Z,9.00
2022-10-03T04:36:54.669Z,9.00
2022-10-03T04:39:40.120Z,8.90
2022-10-03T04:42:13.760Z,8.90
2022-10-03T04:44:43.801Z,9.00
2022-10-03T04:47:29.935Z,9.10
2022-10-03T04:50:02.076Z,9.20
2022-10-03T04:52:28.974Z,9.10
2022-10-03T04:55:05.839Z,8.90
2022-10-03T04:57:35.782Z,9.10
2022-10-03T05:00:14.807Z,9.10
2022-10-03T05:02:46.170Z,9.00
2022-10-03T05:05:19.691Z,9.00
2022-10-03T05:07:46.576Z,8.90
2022-10-03T05:10:19.276Z,8.90
2022-10-03T05:13:04.733Z,8.70
2022-10-03T05:15:50.469Z,8.70
2022-10-03T05:18:23.342Z,8.60
2022-10-03T05:20:56.244Z,8.70
2022-10-03T05:23:41.740Z,8.80
2022-10-03T05:26:43.445Z,8.80
2022-10-03T05:29:25.298Z,8.80
2022-10-03T05:32:12.292Z,8.80
2022-10-03T05:34:39.126Z,8.80
2022-10-03T05:37:25.217Z,8.70
2022-10-03T05:40:01.130Z,8.60
2022-10-03T05:42:46.953Z,8.50
2022-10-03T05:45:21.451Z,8.60
2022-10-03T05:47:55.420Z,8.70
2022-10-03T05:50:36.105Z,8.80
2022-10-03T05:53:12.040Z,8.80
2022-10-03T05:55:47.234Z,8.70
2022-10-03T05:58:32.191Z,8.70
2022-10-03T06:01:04.779Z,8.50
2022-10-03T06:03:34.583Z,8.70
2022-10-03T06:06:12.393Z,8.90
2022-10-03T06:08:54.333Z,8.90
2022-10-03T06:11:34.574Z,8.90
2022-10-03T06:14:10.551Z,8.90
2022-10-03T06:16:37.185Z,8.90
2022-10-03T06:19:16.158Z,9.00
2022-10-03T06:21:57.905Z,9.00
2022-10-03T06:24:27.853Z,9.10
2022-10-03T06:27:21.566Z,9.00
2022-10-03T06:29:48.151Z,8.90
2022-10-03T06:32:14.891Z,9.00
2022-10-03T06:35:00.614Z,9.00
2022-10-03T06:37:42.861Z,9.00
2022-10-03T06:40:21.892Z,9.10
2022-10-03T06:43:07.188Z,9.20
2022-10-03T06:45:33.946Z,9.30
2022-10-03T06:48:09.637Z,9.50
2022-10-03T06:51:15.191Z,9.70
2022-10-03T06:53:45.044Z,9.80
2022-10-03T06:56:49.931Z,10.00
2022-10-03T06:59:36.057Z,10.20
2022-10-03T07:02:25.947Z,10.40
2022-10-03T07:04:52.687Z,10.40
2022-10-03T07:07:19.350Z,10.30
2022-10-03T07:10:02.078Z,10.50
2022-10-03T07:12:33.635Z,10.60
2022-10-03T07:15:18.627Z,10.70
2022-10-03T07:18:03.452Z,10.70
2022-10-03T07:20:30.306Z,10.90
2022-10-03T07:23:16.084Z,10.90
2022-10-03T07:25:55.206Z,10.90
2022-10-03T07:28:25.087Z,11.00
2022-10-03T07:31:00.779Z,10.80
2022-10-03T07:33:46.079Z,10.80
2022-10-03T07:36:50.362Z,10.90
2022-10-03T07:39:35.876Z,11.00
2022-10-03T07:42:05.452Z,11.00
2022-10-03T07:44:32.070Z,11.00
2022-10-03T07:47:30.642Z,11.10
2022-10-03T07:50:18.549Z,11.10
2022-10-03T07:52:59.257Z,11.40
2022-10-03T07:55:41.348Z,11.50
2022-10-03T07:58:11.050Z,11.70
2022-10-03T08:00:40.705Z,11.90
2022-10-03T08:03:29.827Z,11.90
2022-10-03T08:06:14.071Z,11.70
2022-10-03T08:08:59.068Z,12.40
2022-10-03T08:11:32.511Z,13.00
2022-10-03T08:14:01.635Z,13.20
2022-10-03T08:16:37.852Z,13.60
2022-10-03T08:19:14.412Z,13.80
2022-10-03T08:21:47.280Z,15.00
2022-10-03T08:24:13.965Z,16.60
2022-10-03T08:26:44.025Z,17.80
2022-10-03T08:29:23.679Z,18.90
2022-10-03T08:31:52.654Z,18.50
2022-10-03T08:34:25.377Z,18.20
2022-10-03T08:36:52.221Z,17.50
2022-10-03T08:39:24.899Z,17.90
2022-10-03T08:41:54.394Z,18.10
2022-10-03T08:44:29.571Z,17.90
2022-10-03T08:47:09.486Z,18.20
2022-10-03T08:50:05.996Z,18.50
2022-10-03T08:52:51.209Z,18.50
2022-10-03T08:55:24.266Z,19.00
2022-10-03T08:58:04.977Z,19.50
2022-10-03T09:00:31.520Z,20.70
2022-10-03T09:03:31.451Z,22.10
2022-10-03T09:06:09.072Z,21.20
2022-10-03T09:08:38.805Z,20.50
2022-10-03T09:11:14.828Z,20.30
2022-10-03T09:13:57.764Z,20.90
2022-10-03T09:16:27.515Z,20.60
2022-10-03T09:19:00.199Z,21.10
2022-10-03T09:21:33.686Z,21.30
2022-10-03T09:24:03.292Z,22.10
2022-10-03T09:26:39.769Z,22.70
2022-10-03T09:29:19.148Z,22.70
2022-10-03T09:31:58.032Z,23.60
2022-10-03T09:34:36.951Z,24.80
2022-10-03T09:37:25.117Z,25.80
2022-10-03T09:40:27.361Z,25.80
2022-10-03T09:43:02.929Z,25.10
2022-10-03T09:45:47.924Z,26.30
2022-10-03T09:48:34.850Z,27.20
2022-10-03T09:51:21.110Z,27.00
2022-10-03T09:53:54.116Z,26.70
2022-10-03T09:56:20.708Z,27.50
2022-10-03T09:59:01.124Z,28.00
2022-10-03T10:01:37.211Z,27.70
2022-10-03T10:04:37.818Z,28.10
2022-10-03T10:07:22.237Z,28.90
2022-10-03T10:09:54.816Z,28.50
2022-10-03T10:12:57.093Z,27.80
2022-10-03T10:15:36.655Z,27.50
2022-10-03T10:18:23.620Z,28.50
2022-10-03T10:21:00.613Z,29.00
2022-10-03T10:23:46.816Z,28.00
2022-10-03T10:26:43.605Z,29.40
2022-10-03T10:29:16.244Z,31.10
2022-10-03T10:31:53.013Z,30.80
2022-10-03T10:34:34.941Z,29.30
2022-10-03T10:37:01.616Z,28.50
2022-10-03T10:39:34.344Z,29.80
2022-10-03T10:42:15.074Z,30.80
2022-10-03T10:45:00.549Z,28.00
2022-10-03T10:47:45.844Z,26.70
2022-10-03T10:50:12.541Z,26.10
2022-10-03T10:52:57.964Z,25.80
2022-10-03T10:55:27.547Z,24.00
2022-10-03T10:58:03.511Z,24.90
2022-10-03T11:00:39.193Z,26.20
2022-10-03T11:03:34.923Z,26.90
2022-10-03T11:06:07.709Z,26.90
2022-10-03T11:08:55.020Z,26.10
2022-10-03T11:11:41.745Z,25.00
2022-10-03T11:14:28.198Z,26.10
2022-10-03T11:17:07.194Z,26.00
2022-10-03T11:19:41.804Z,28.70
2022-10-03T11:22:24.398Z,30.20
2022-10-03T11:25:09.704Z,31.20
2022-10-03T11:27:36.333Z,30.10
2022-10-03T11:30:08.890Z,30.40
2022-10-03T11:32:57.785Z,29.70
2022-10-03T11:35:43.329Z,31.20
2022-10-03T11:38:19.435Z,33.30
2022-10-03T11:40:55.482Z,33.60
2022-10-03T11:43:34.432Z,32.60
2022-10-03T11:46:01.062Z,31.20
2022-10-03T11:48:38.068Z,30.00
2022-10-03T11:51:07.417Z,31.40
2022-10-03T11:53:37.852Z,30.10
2022-10-03T11:56:18.473Z,31.80
2022-10-03T11:59:04.148Z,33.70
2022-10-03T12:01:40.083Z,30.90
2022-10-03T12:04:13.034Z,30.80
2022-10-03T12:07:07.894Z,29.10
2022-10-03T12:10:01.407Z,28.50
2022-10-03T12:12:42.256Z,31.20
2022-10-03T12:15:12.103Z,30.30
2022-10-03T12:17:46.143Z,29.70
2022-10-03T12:20:18.909Z,29.90
2022-10-03T12:22:50.166Z,29.90
2022-10-03T12:25:21.463Z,29.00
2022-10-03T12:28:07.540Z,28.20
2022-10-03T12:30:55.184Z,27.70
2022-10-03T12:33:22.117Z,25.80
2022-10-03T12:36:02.530Z,24.10
2022-10-03T12:38:29.170Z,24.60
2022-10-03T12:41:25.914Z,25.30
2022-10-03T12:43:55.360Z,26.40
2022-10-03T12:46:35.026Z,26.50
2022-10-03T12:49:20.690Z,26.60
2022-10-03T12:51:50.480Z,27.40
2022-10-03T12:54:26.800Z,28.20
2022-10-03T12:57:12.026Z,28.50
2022-10-03T12:59:42.506Z,28.40
2022-10-03T13:02:09.443Z,27.40
2022-10-03T13:04:42.681Z,26.20
2022-10-03T13:07:09.624Z,25.50
2022-10-03T13:09:48.328Z,25.50
2022-10-03T13:12:27.926Z,25.60
2022-10-03T13:15:03.999Z,24.20
2022-10-03T13:17:41.004Z,24.00
2022-10-03T13:20:15.286Z,24.70
2022-10-03T13:23:05.004Z,24.90
2022-10-03T13:25:36.511Z,24.40
2022-10-03T13:28:39.655Z,24.10
2022-10-03T13:31:15.591Z,23.40
2022-10-03T13:33:47.284Z,22.60
2022-10-03T13:36:26.383Z,21.90
2022-10-03T13:39:05.140Z,21.30
2022-10-03T13:41:38.363Z,21.20
2022-10-03T13:44:23.680Z,21.20
2022-10-03T13:46:57.596Z,21.30
2022-10-03T13:49:32.047Z,21.00
2022-10-03T13:52:21.734Z,21.20
2022-10-03T13:55:07.070Z,21.10
2022-10-03T13:57:45.080Z,21.10
2022-10-03T14:00:15.112Z,21.10
2022-10-03T14:03:01.709Z,20.90
2022-10-03T14:05:28.444Z,20.50
2022-10-03T14:08:04.150Z,20.30
2022-10-03T14:10:38.213Z,20.40
2022-10-03T14:13:28.436Z,20.20
2022-10-03T14:15:55.580Z,20.30
2022-10-03T14:18:32.029Z,20.50
2022-10-03T14:21:17.526Z,20.80
2022-10-03T14:23:59.317Z,20.80
2022-10-03T14:26:46.213Z,20.80
2022-10-03T14:29:21.388Z,20.50
2022-10-03T14:32:28.163Z,20.70
2022-10-03T14:35:15.790Z,20.60
2022-10-03T14:37:57.756Z,20.40
2022-10-03T14:40:27.925Z,20.60
2022-10-03T14:42:54.729Z,20.60
2022-10-03T14:45:27.713Z,19.90
2022-10-03T14:47:57.300Z,20.20
2022-10-03T14:50:25.994Z,20.10
2022-10-03T14:52:52.841Z,20.20
2022-10-03T14:55:21.080Z,20.30
2022-10-03T14:58:09.332Z,20.40
2022-10-03T15:00:43.706Z,20.40
2022-10-03T15:03:22.539Z,20.30
2022-10-03T15:05:56.651Z,20.30
2022-10-03T15:08:25.210Z,20.20
2022-10-03T15:10:54.333Z,20.00
2022-10-03T15:13:23.021Z,19.60
2022-10-03T15:15:50.665Z,19.40
2022-10-03T15:18:23.027Z,19.10
2022-10-03T15:20:52.522Z,19.00
2022-10-03T15:23:33.270Z,19.00
2022-10-03T15:26:00.602Z,18.80
2022-10-03T15:28:36.893Z,18.80
2022-10-03T15:31:14.379Z,18.70
2022-10-03T15:33:42.853Z,18.50
2022-10-03T15:36:14.613Z,18.30
2022-10-03T15:38:43.805Z,18.00
2022-10-03T15:41:16.554Z,18.10
2022-10-03T15:43:49.384Z,17.90
2022-10-03T15:46:36.940Z,18.00
2022-10-03T15:49:07.263Z,18.00
2022-10-03T15:51:36.153Z,17.90
2022-10-03T15:54:05.221Z,17.70
2022-10-03T15:56:34.055Z,17.50
2022-10-03T15:59:05.845Z,17.60
2022-10-03T16:01:37.033Z,17.50
2022-10-03T16:04:05.450Z,17.30
2022-10-03T16:06:53.144Z,17.10
2022-10-03T16:09:31.825Z,17.20
2022-10-03T16:12:11.044Z,17.10
2022-10-03T16:14:41.468Z,16.90
2022-10-03T16:17:25.444Z,16.90
2022-10-03T16:19:58.414Z,16.90
2022-10-03T16:22:37.331Z,16.90
2022-10-03T16:25:16.652Z,16.90
2022-10-03T16:28:03.547Z,16.80
2022-10-03T16:30:34.044Z,16.80
2022-10-03T16:33:00.787Z,16.80
2022-10-03T16:35:28.605Z,16.90
2022-10-03T16:37:55.549Z,16.80
2022-10-03T16:40:24.769Z,16.80
2022-10-03T16:42:55.907Z,16.80
2022-10-03T16:45:30.709Z,16.80
2022-10-03T16:48:18.030Z,16.60
2022-10-03T16:50:49.667Z,16.30
2022-10-03T16:53:16.970Z,16.10
2022-10-03T16:55:46.782Z,16.10
2022-10-03T16:58:19.691Z,16.20
2022-10-03T17:01:09.081Z,16.30
2022-10-03T17:03:47.589Z,16.10
2022-10-03T17:06:20.402Z,16.00
2022-10-03T17:08:50.380Z,16.00
2022-10-03T17:11:19.553Z,16.00
2022-10-03T17:13:47.981Z,15.70
2022-10-03T17:16:14.829Z,15.70
2022-10-03T17:18:44.563Z,15.70
2022-10-03T17:21:28.881Z,15.40
2022-10-03T17:24:06.624Z,15.20
2022-10-03T17:26:35.938Z,15.10
2022-10-03T17:29:02.777Z,15.10
2022-10-03T17:31:29.576Z,15.10
2022-10-03T17:34:16.941Z,15.00
2022-10-03T17:36:50.520Z,15.10
2022-10-03T17:39:17.186Z,15.10
2022-10-03T17:41:57.840Z,15.30
2022-10-03T17:44:47.411Z,15.30
2022-10-03T17:47:34.171Z,15.10
2022-10-03T17:50:02.120Z,15.00
2022-10-03T17:52:30.054Z,15.00
2022-10-03T17:54:59.421Z,15.00
2022-10-03T17:57:28.869Z,15.00
2022-10-03T18:00:16.497Z,14.90
2022-10-03T18:02:53.649Z,14.90
2022-10-03T18:05:22.322Z,14.90
2022-10-03T18:07:50.643Z,14.70
2022-10-03T18:10:32.665Z,14.60
2022-10-03T18:13:01.933Z,14.60
2022-10-03T18:15:37.494Z,14.50
2022-10-03T18:18:16.857Z,14.50
2022-10-03T18:20:47.604Z,14.50
2022-10-03T18:23:49.860Z,14.40
2022-10-03T18:26:22.032Z,14.30
2022-10-03T18:28:48.929Z,14.20
2022-10-03T18:31:17.608Z,14.20
2022-10-03T18:34:11.598Z,14.20
2022-10-03T18:36:45.889Z,14.30
2022-10-03T18:39:12.716Z,14.30
2022-10-03T18:41:45.047Z,14.30
2022-10-03T18:44:18.003Z,14.30
2022-10-03T18:46:50.646Z,14.30
2022-10-03T18:49:34.426Z,14.30
2022-10-03T18:52:10.748Z,14.40
2022-10-03T18:54:58.425Z,14.30
2022-10-03T18:57:29.411Z,14.50
2022-10-03T19:00:01.957Z,14.50
2022-10-03T19:02:34.894Z,14.40
2022-10-03T19:05:09.528Z,14.30
2022-10-03T19:07:38.835Z,14.40
2022-10-03T19:10:33.874Z,14.50
2022-10-03T19:13:25.100Z,14.50
2022-10-03T19:16:12.774Z,14.50
2022-10-03T19:18:47.364Z,14.40
2022-10-03T19:21:18.896Z,14.30
2022-10-03T19:23:48.313Z,14.10
2022-10-03T19:26:21.853Z,14.00
2022-10-03T19:28:52.752Z,13.80
2022-10-03T19:31:31.219Z,13.70
2022-10-03T19:34:07.450Z,13.70
2022-10-03T19:36:37.415Z,13.70
2022-10-03T19:39:20.573Z,13.80
2022-10-03T19:41:52.361Z,13.70
2022-10-03T19:44:21.624Z,13.60
2022-10-03T19:46:57.225Z,13.60
2022-10-03T19:49:43.956Z,13.40
2022-10-03T19:52:41.703Z,13.30
2022-10-03T19:55:20.784Z,13.30
2022-10-03T19:57:51.465Z,13.20
2022-10-03T20:00:18.323Z,13.30
2022-10-03T20:03:07.472Z,13.30
2022-10-03T20:05:39.955Z,13.30
2022-10-03T20:08:32.756Z,13.50
2022-10-03T20:11:07.655Z,13.60
2022-10-03T20:13:41.568Z,13.50
2022-10-03T20:16:14.336Z,13.30
2022-10-03T20:18:43.645Z,13.40
2022-10-03T20:21:21.420Z,13.50
2022-10-03T20:23:49.409Z,13.50
2022-10-03T20:28:28.863Z,13.50
2022-10-03T20:30:56.079Z,13.40
2022-10-03T20:33:37.289Z,13.20
2022-10-03T20:36:21.403Z,13.20
2022-10-03T20:39:08.721Z,13.20
2022-10-03T20:41:55.645Z,13.30
2022-10-03T20:44:41.368Z,13.40
2022-10-03T20:47:26.572Z,13.40
2022-10-03T20:50:25.153Z,13.30
2022-10-03T20:53:01.824Z,13.20
2022-10-03T20:55:34.744Z,13.20
2022-10-03T20:58:51.135Z,13.10
2022-10-03T21:01:27.398Z,12.80
2022-10-03T21:04:06.667Z,12.70
2022-10-03T21:06:54.106Z,12.70
2022-10-03T21:09:40.947Z,12.70
2022-10-03T21:12:18.780Z,12.70
2022-10-03T21:14:52.570Z,12.40
2022-10-03T21:17:27.721Z,12.30
2022-10-03T21:20:04.408Z,12.40
2022-10-03T21:22:36.676Z,12.40
2022-10-03T21:25:18.372Z,12.40
2022-10-03T21:27:55.931Z,12.50
2022-10-03T21:30:54.791Z,12.50
2022-10-03T21:33:30.473Z,12.50
2022-10-03T21:36:17.047Z,12.50
2022-10-03T21:38:50.213Z,12.60
2022-10-03T21:41:31.820Z,13.20
2022-10-03T21:44:25.760Z,12.70
2022-10-03T21:47:38.837Z,12.70
2022-10-03T21:50:25.080Z,12.60
2022-10-03T21:53:14.208Z,12.60
2022-10-03T21:56:09.157Z,12.50
2022-10-03T21:59:14.945Z,12.50
2022-10-03T22:02:38.816Z,12.40
2022-10-03T22:05:56.777Z,12.20
2022-10-03T22:08:26.662Z,12.20
2022-10-03T22:11:07.656Z,12.30
2022-10-03T22:13:39.285Z,12.30
2022-10-03T22:16:17.699Z,12.30
2022-10-03T22:19:07.736Z,12.30
2022-10-03T22:22:09.568Z,12.40
2022-10-03T22:25:03.517Z,12.50
2022-10-03T22:27:43.101Z,12.40
2022-10-03T22:31:00.672Z,12.50
2022-10-03T22:33:59.190Z,12.50
2022-10-03T22:36:28.655Z,12.80
2022-10-03T22:39:01.148Z,12.80
2022-10-03T22:41:31.549Z,12.80
2022-10-03T22:44:06.109Z,12.80
2022-10-03T22:46:36.805Z,12.70
2022-10-03T22:49:20.341Z,12.60
2022-10-03T22:52:17.156Z,12.60
2022-10-03T22:54:47.599Z,12.50
2022-10-03T22:57:25.179Z,12.50
2022-10-03T23:00:08.004Z,12.50
2022-10-03T23:02:50.277Z,12.50
2022-10-03T23:05:40.133Z,12.50
2022-10-03T23:08:26.244Z,12.50
2022-10-03T23:11:10.073Z,12.50
2022-10-03T23:13:40.436Z,12.40
2022-10-03T23:16:23.383Z,12.40
2022-10-03T23:19:11.889Z,12.20
2022-10-03T23:21:50.089Z,12.20
2022-10-03T23:24:35.790Z,12.00
2022-10-03T23:27:24.484Z,12.00
2022-10-03T23:30:32.577Z,12.20
2022-10-03T23:33:00.453Z,12.20
2022-10-03T23:35:47.749Z,12.30
2022-10-03T23:38:36.141Z,12.20
2022-10-03T23:41:30.172Z,12.30
2022-10-03T23:44:01.126Z,12.30
2022-10-03T23:46:30.784Z,12.00
2022-10-03T23:49:01.864Z,11.90
2022-10-03T23:51:40.209Z,11.90
2022-10-03T23:54:14.580Z,11.70
2022-10-03T23:56:48.539Z,11.50
2022-10-03T23:59:15.425Z,11.40
